sensor_id;sensor_type;location;lat;lon;timestamp;temperature;humidity
17762;DHT22;9005;48.838;10.112;2023-03-01T00:00:51;-2.80;99.90
17762;DHT22;9005;48.838;10.112;2023-03-01T00:03:18;-2.80;99.90
17762;DHT22;9005;48.838;10.112;2023-03-01T00:05:45;-2.80;99.90
17762;DHT22;9005;48.838;10.112;2023-03-01T00:08:12;-2.80;99.90
17762;DHT22;9005;48.838;10.112;2023-03-01T00:10:39;-2.70;99.90
17762;DHT22;9005;48.838;10.112;2023-03-01T00:13:05;-2.80;99.90
17762;DHT22;9005;48.838;10.112;2023-03-01T00:15:32;-2.70;99.90
17762;DHT22;9005;48.838;10.112;2023-03-01T00:18:01;-2.70;99.90
17762;DHT22;9005;48.838;10.112;2023-03-01T00:20:28;-2.60;99.90
17762;DHT22;9005;48.838;10.112;2023-03-01T00:22:55;-2.50;99.90
17762;DHT22;9005;48.838;10.112;2023-03-01T00:25:21;-2.40;99.90
17762;DHT22;9005;48.838;10.112;2023-03-01T00:27:48;-2.20;99.90
17762;DHT22;9005;48.838;10.112;2023-03-01T00:30:15;-2.10;99.90
17762;DHT22;9005;48.838;10.112;2023-03-01T00:32:42;-1.90;99.90
17762;DHT22;9005;48.838;10.112;2023-03-01T00:35:10;-1.80;99.90
17762;DHT22;9005;48.838;10.112;2023-03-01T00:37:37;-1.60;99.90
17762;DHT22;9005;48.838;10.112;2023-03-01T00:40:04;-1.50;99.90
17762;DHT22;9005;48.838;10.112;2023-03-01T00:42:32;-1.30;99.90
17762;DHT22;9005;48.838;10.112;2023-03-01T00:44:59;-1.20;99.90
17762;DHT22;9005;48.838;10.112;2023-03-01T00:47:28;-1.10;99.90
17762;DHT22;9005;48.838;10.112;2023-03-01T00:49:54;-1.00;99.90
17762;DHT22;9005;48.838;10.112;2023-03-01T00:52:22;-0.90;99.90
17762;DHT22;9005;48.838;10.112;2023-03-01T00:54:52;-0.80;99.90
17762;DHT22;9005;48.838;10.112;2023-03-01T00:57:19;-0.70;99.90
17762;DHT22;9005;48.838;10.112;2023-03-01T00:59:45;-0.60;99.90
17762;DHT22;9005;48.838;10.112;2023-03-01T01:02:12;-0.60;99.90
17762;DHT22;9005;48.838;10.112;2023-03-01T01:04:39;-0.50;99.90
17762;DHT22;9005;48.838;10.112;2023-03-01T01:07:06;-0.50;99.90
17762;DHT22;9005;48.838;10.112;2023-03-01T01:09:34;-0.50;99.90
17762;DHT22;9005;48.838;10.112;2023-03-01T01:12:02;-0.40;99.90
17762;DHT22;9005;48.838;10.112;2023-03-01T01:14:29;-0.30;99.90
17762;DHT22;9005;48.838;10.112;2023-03-01T01:16:56;-0.30;99.90
17762;DHT22;9005;48.838;10.112;2023-03-01T01:19:23;-0.30;99.90
17762;DHT22;9005;48.838;10.112;2023-03-01T01:21:50;-0.20;99.90
17762;DHT22;9005;48.838;10.112;2023-03-01T01:24:17;-0.20;99.90
17762;DHT22;9005;48.838;10.112;2023-03-01T01:26:46;-0.20;99.90
17762;DHT22;9005;48.838;10.112;2023-03-01T01:29:13;-0.10;99.90
17762;DHT22;9005;48.838;10.112;2023-03-01T01:31:41;-0.10;99.90
17762;DHT22;9005;48.838;10.112;2023-03-01T01:34:13;-0.10;99.90
17762;DHT22;9005;48.838;10.112;2023-03-01T01:36:40;-0.10;99.90
17762;DHT22;9005;48.838;10.112;2023-03-01T01:39:07;-0.10;99.90
17762;DHT22;9005;48.838;10.112;2023-03-01T01:41:39;-0.10;99.90
17762;DHT22;9005;48.838;10.112;2023-03-01T01:44:14;-0.10;99.90
17762;DHT22;9005;48.838;10.112;2023-03-01T01:46:44;-0.10;99.90
17762;DHT22;9005;48.838;10.112;2023-03-01T01:49:23;-0.10;99.90
17762;DHT22;9005;48.838;10.112;2023-03-01T01:51:55;-0.10;99.90
17762;DHT22;9005;48.838;10.112;2023-03-01T01:54:26;-0.10;99.90
17762;DHT22;9005;48.838;10.112;2023-03-01T01:56:57;-0.10;99.90
17762;DHT22;9005;48.838;10.112;2023-03-01T01:59:28;-0.10;99.90
17762;DHT22;9005;48.838;10.112;2023-03-01T02:01:58;-0.10;99.90
17762;DHT22;9005;48.838;10.112;2023-03-01T02:04:25;-0.10;99.90
17762;DHT22;9005;48.838;10.112;2023-03-01T02:06:57;-0.10;99.90
17762;DHT22;9005;48.838;10.112;2023-03-01T02:09:25;-0.10;99.90
17762;DHT22;9005;48.838;10.112;2023-03-01T02:11:53;-0.10;99.90
17762;DHT22;9005;48.838;10.112;2023-03-01T02:14:20;-0.10;99.90
17762;DHT22;9005;48.838;10.112;2023-03-01T02:16:48;-0.10;99.90
17762;DHT22;9005;48.838;10.112;2023-03-01T02:19:23;-0.10;99.90
17762;DHT22;9005;48.838;10.112;2023-03-01T02:21:58;-0.10;99.90
17762;DHT22;9005;48.838;10.112;2023-03-01T02:24:31;-0.20;99.90
17762;DHT22;9005;48.838;10.112;2023-03-01T02:27:01;-0.20;99.90
17762;DHT22;9005;48.838;10.112;2023-03-01T02:29:29;-0.20;99.90
17762;DHT22;9005;48.838;10.112;2023-03-01T02:31:59;-0.20;99.90
17762;DHT22;9005;48.838;10.112;2023-03-01T02:34:27;0.50;99.90
17762;DHT22;9005;48.838;10.112;2023-03-01T02:36:58;-0.30;99.90
17762;DHT22;9005;48.838;10.112;2023-03-01T02:39:29;-0.30;99.90
17762;DHT22;9005;48.838;10.112;2023-03-01T02:41:57;-0.30;99.90
17762;DHT22;9005;48.838;10.112;2023-03-01T02:44:25;-0.30;99.90
17762;DHT22;9005;48.838;10.112;2023-03-01T02:46:56;-0.30;99.90
17762;DHT22;9005;48.838;10.112;2023-03-01T02:49:25;-0.30;99.90
17762;DHT22;9005;48.838;10.112;2023-03-01T02:52:17;-0.30;99.90
17762;DHT22;9005;48.838;10.112;2023-03-01T02:54:50;-0.30;99.90
17762;DHT22;9005;48.838;10.112;2023-03-01T02:57:18;-0.30;99.90
17762;DHT22;9005;48.838;10.112;2023-03-01T02:59:44;-0.30;99.90
17762;DHT22;9005;48.838;10.112;2023-03-01T03:02:21;-0.40;99.90
17762;DHT22;9005;48.838;10.112;2023-03-01T03:05:02;-0.30;99.90
17762;DHT22;9005;48.838;10.112;2023-03-01T03:07:28;-0.40;99.90
17762;DHT22;9005;48.838;10.112;2023-03-01T03:09:55;-0.30;99.90
17762;DHT22;9005;48.838;10.112;2023-03-01T03:12:22;-0.40;99.90
17762;DHT22;9005;48.838;10.112;2023-03-01T03:14:49;-0.30;99.90
17762;DHT22;9005;48.838;10.112;2023-03-01T03:17:15;-0.30;99.90
17762;DHT22;9005;48.838;10.112;2023-03-01T03:19:43;-0.30;99.90
17762;DHT22;9005;48.838;10.112;2023-03-01T03:22:10;-0.30;99.90
17762;DHT22;9005;48.838;10.112;2023-03-01T03:24:37;-0.30;99.90
17762;DHT22;9005;48.838;10.112;2023-03-01T03:27:04;-0.40;99.90
17762;DHT22;9005;48.838;10.112;2023-03-01T03:29:31;-0.40;99.90
17762;DHT22;9005;48.838;10.112;2023-03-01T03:31:58;-0.40;99.90
17762;DHT22;9005;48.838;10.112;2023-03-01T03:34:25;-0.40;99.90
17762;DHT22;9005;48.838;10.112;2023-03-01T03:36:55;-0.40;99.90
17762;DHT22;9005;48.838;10.112;2023-03-01T03:39:25;-0.40;99.90
17762;DHT22;9005;48.838;10.112;2023-03-01T03:41:52;-0.40;99.90
17762;DHT22;9005;48.838;10.112;2023-03-01T03:44:19;-0.40;99.90
17762;DHT22;9005;48.838;10.112;2023-03-01T03:46:45;-0.40;99.90
17762;DHT22;9005;48.838;10.112;2023-03-01T03:49:12;-0.40;99.90
17762;DHT22;9005;48.838;10.112;2023-03-01T03:51:39;-0.50;99.90
17762;DHT22;9005;48.838;10.112;2023-03-01T03:54:07;-0.40;99.90
17762;DHT22;9005;48.838;10.112;2023-03-01T03:56:34;-0.40;99.90
17762;DHT22;9005;48.838;10.112;2023-03-01T03:59:01;-0.50;99.90
17762;DHT22;9005;48.838;10.112;2023-03-01T04:01:27;-0.50;99.90
17762;DHT22;9005;48.838;10.112;2023-03-01T04:03:54;-0.50;99.90
17762;DHT22;9005;48.838;10.112;2023-03-01T04:06:21;-0.40;99.90
17762;DHT22;9005;48.838;10.112;2023-03-01T04:08:48;-0.40;99.90
17762;DHT22;9005;48.838;10.112;2023-03-01T04:11:17;-0.40;99.90
17762;DHT22;9005;48.838;10.112;2023-03-01T04:13:54;-0.40;99.90
17762;DHT22;9005;48.838;10.112;2023-03-01T04:16:22;-0.40;99.90
17762;DHT22;9005;48.838;10.112;2023-03-01T04:18:49;-0.40;99.90
17762;DHT22;9005;48.838;10.112;2023-03-01T04:21:17;-0.40;99.90
17762;DHT22;9005;48.838;10.112;2023-03-01T04:23:45;-0.40;99.90
17762;DHT22;9005;48.838;10.112;2023-03-01T04:26:12;-0.40;99.90
17762;DHT22;9005;48.838;10.112;2023-03-01T04:28:42;-0.40;99.90
17762;DHT22;9005;48.838;10.112;2023-03-01T04:31:12;-0.40;99.90
17762;DHT22;9005;48.838;10.112;2023-03-01T04:33:44;-0.40;99.90
17762;DHT22;9005;48.838;10.112;2023-03-01T04:36:13;-0.40;99.90
17762;DHT22;9005;48.838;10.112;2023-03-01T04:38:41;-0.40;99.90
17762;DHT22;9005;48.838;10.112;2023-03-01T04:41:14;-0.40;99.90
17762;DHT22;9005;48.838;10.112;2023-03-01T04:43:42;-0.40;99.90
17762;DHT22;9005;48.838;10.112;2023-03-01T04:46:11;-0.40;99.90
17762;DHT22;9005;48.838;10.112;2023-03-01T04:48:39;-0.40;99.90
17762;DHT22;9005;48.838;10.112;2023-03-01T04:51:06;-0.50;99.90
17762;DHT22;9005;48.838;10.112;2023-03-01T04:53:34;-0.50;99.90
17762;DHT22;9005;48.838;10.112;2023-03-01T04:56:01;-0.40;99.90
17762;DHT22;9005;48.838;10.112;2023-03-01T04:58:28;-0.40;99.90
17762;DHT22;9005;48.838;10.112;2023-03-01T05:00:56;-0.40;99.90
17762;DHT22;9005;48.838;10.112;2023-03-01T05:03:24;-0.50;99.90
17762;DHT22;9005;48.838;10.112;2023-03-01T05:05:52;-0.50;99.90
17762;DHT22;9005;48.838;10.112;2023-03-01T05:08:19;-0.40;99.90
17762;DHT22;9005;48.838;10.112;2023-03-01T05:10:48;-0.40;99.90
17762;DHT22;9005;48.838;10.112;2023-03-01T05:13:15;-0.40;99.90
17762;DHT22;9005;48.838;10.112;2023-03-01T05:15:47;-0.40;99.90
17762;DHT22;9005;48.838;10.112;2023-03-01T05:18:15;-0.50;99.90
17762;DHT22;9005;48.838;10.112;2023-03-01T05:20:42;-0.50;99.90
17762;DHT22;9005;48.838;10.112;2023-03-01T05:23:10;-0.60;99.90
17762;DHT22;9005;48.838;10.112;2023-03-01T05:25:36;-0.70;99.90
17762;DHT22;9005;48.838;10.112;2023-03-01T05:28:06;-0.80;99.90
17762;DHT22;9005;48.838;10.112;2023-03-01T05:30:35;-0.90;99.90
17762;DHT22;9005;48.838;10.112;2023-03-01T05:33:02;-0.90;99.90
17762;DHT22;9005;48.838;10.112;2023-03-01T05:35:32;-1.00;99.90
17762;DHT22;9005;48.838;10.112;2023-03-01T05:37:59;-1.00;99.90
17762;DHT22;9005;48.838;10.112;2023-03-01T05:40:26;-1.00;99.90
17762;DHT22;9005;48.838;10.112;2023-03-01T05:42:55;-1.10;99.90
17762;DHT22;9005;48.838;10.112;2023-03-01T05:45:23;-1.20;99.90
17762;DHT22;9005;48.838;10.112;2023-03-01T05:47:50;-1.30;99.90
17762;DHT22;9005;48.838;10.112;2023-03-01T05:50:18;-1.50;99.90
17762;DHT22;9005;48.838;10.112;2023-03-01T05:52:48;-1.60;99.90
17762;DHT22;9005;48.838;10.112;2023-03-01T05:55:16;-1.80;99.90
17762;DHT22;9005;48.838;10.112;2023-03-01T05:57:44;-1.90;99.90
17762;DHT22;9005;48.838;10.112;2023-03-01T06:00:13;-2.10;99.90
17762;DHT22;9005;48.838;10.112;2023-03-01T06:02:40;-2.20;99.90
17762;DHT22;9005;48.838;10.112;2023-03-01T06:05:09;-2.20;99.90
17762;DHT22;9005;48.838;10.112;2023-03-01T06:07:36;-2.30;99.90
17762;DHT22;9005;48.838;10.112;2023-03-01T06:10:06;-2.40;99.90
17762;DHT22;9005;48.838;10.112;2023-03-01T06:12:33;-2.50;99.90
17762;DHT22;9005;48.838;10.112;2023-03-01T06:15:01;-2.60;99.90
17762;DHT22;9005;48.838;10.112;2023-03-01T06:17:30;-2.60;99.90
17762;DHT22;9005;48.838;10.112;2023-03-01T06:19:57;-2.60;99.90
17762;DHT22;9005;48.838;10.112;2023-03-01T06:22:24;-2.60;99.90
17762;DHT22;9005;48.838;10.112;2023-03-01T06:24:50;-2.70;99.90
17762;DHT22;9005;48.838;10.112;2023-03-01T06:27:18;-2.60;99.90
17762;DHT22;9005;48.838;10.112;2023-03-01T06:29:45;-2.60;99.90
17762;DHT22;9005;48.838;10.112;2023-03-01T06:32:12;-2.60;99.90
17762;DHT22;9005;48.838;10.112;2023-03-01T06:34:39;-2.70;99.90
17762;DHT22;9005;48.838;10.112;2023-03-01T06:37:06;-2.70;99.90
17762;DHT22;9005;48.838;10.112;2023-03-01T06:39:33;-2.60;99.90
17762;DHT22;9005;48.838;10.112;2023-03-01T06:42:00;-2.70;99.90
17762;DHT22;9005;48.838;10.112;2023-03-01T06:44:28;-2.70;99.90
17762;DHT22;9005;48.838;10.112;2023-03-01T06:49:22;-2.70;99.90
17762;DHT22;9005;48.838;10.112;2023-03-01T06:51:49;-2.60;99.90
17762;DHT22;9005;48.838;10.112;2023-03-01T06:54:16;-2.60;99.90
17762;DHT22;9005;48.838;10.112;2023-03-01T06:56:43;-2.60;99.90
17762;DHT22;9005;48.838;10.112;2023-03-01T06:59:09;-2.50;99.90
17762;DHT22;9005;48.838;10.112;2023-03-01T07:01:38;-2.40;99.90
17762;DHT22;9005;48.838;10.112;2023-03-01T07:04:05;-2.40;99.90
17762;DHT22;9005;48.838;10.112;2023-03-01T07:06:31;-2.40;99.90
17762;DHT22;9005;48.838;10.112;2023-03-01T07:08:58;-2.30;99.90
17762;DHT22;9005;48.838;10.112;2023-03-01T07:11:25;-2.20;99.90
17762;DHT22;9005;48.838;10.112;2023-03-01T07:13:51;-2.20;99.90
17762;DHT22;9005;48.838;10.112;2023-03-01T07:16:18;-2.10;99.90
17762;DHT22;9005;48.838;10.112;2023-03-01T07:18:47;-2.00;99.90
17762;DHT22;9005;48.838;10.112;2023-03-01T07:21:14;-1.90;99.90
17762;DHT22;9005;48.838;10.112;2023-03-01T07:23:42;-1.80;99.90
17762;DHT22;9005;48.838;10.112;2023-03-01T07:26:08;-1.70;99.90
17762;DHT22;9005;48.838;10.112;2023-03-01T07:28:35;-1.60;99.90
17762;DHT22;9005;48.838;10.112;2023-03-01T14:03:25;22.00;20.30
17762;DHT22;9005;48.838;10.112;2023-03-01T14:06:03;21.70;20.50
17762;DHT22;9005;48.838;10.112;2023-03-01T14:08:32;21.80;20.10
17762;DHT22;9005;48.838;10.112;2023-03-01T14:11:27;22.00;19.90
17762;DHT22;9005;48.838;10.112;2023-03-01T14:14:11;21.70;19.90
17762;DHT22;9005;48.838;10.112;2023-03-01T14:16:49;21.90;19.80
17762;DHT22;9005;48.838;10.112;2023-03-01T14:19:20;22.00;20.10
17762;DHT22;9005;48.838;10.112;2023-03-01T14:21:59;21.80;20.10
17762;DHT22;9005;48.838;10.112;2023-03-01T14:24:27;21.60;20.10
17762;DHT22;9005;48.838;10.112;2023-03-01T14:26:54;21.40;19.90
17762;DHT22;9005;48.838;10.112;2023-03-01T14:29:26;21.20;20.70
17762;DHT22;9005;48.838;10.112;2023-03-01T14:31:53;21.20;21.20
17762;DHT22;9005;48.838;10.112;2023-03-01T14:34:21;21.30;20.90
17762;DHT22;9005;48.838;10.112;2023-03-01T14:36:48;21.40;20.80
17762;DHT22;9005;48.838;10.112;2023-03-01T14:39:24;21.40;20.70
17762;DHT22;9005;48.838;10.112;2023-03-01T14:41:52;21.40;20.90
17762;DHT22;9005;48.838;10.112;2023-03-01T14:44:22;21.20;20.50
17762;DHT22;9005;48.838;10.112;2023-03-01T14:46:52;20.90;20.70
17762;DHT22;9005;48.838;10.112;2023-03-01T14:49:22;20.70;21.10
17762;DHT22;9005;48.838;10.112;2023-03-01T14:51:53;20.60;20.40
17762;DHT22;9005;48.838;10.112;2023-03-01T14:54:25;20.40;21.00
17762;DHT22;9005;48.838;10.112;2023-03-01T14:56:54;20.20;21.70
17762;DHT22;9005;48.838;10.112;2023-03-01T14:59:24;20.30;21.20
17762;DHT22;9005;48.838;10.112;2023-03-01T15:01:51;20.30;21.60
17762;DHT22;9005;48.838;10.112;2023-03-01T15:04:20;20.10;21.70
17762;DHT22;9005;48.838;10.112;2023-03-01T15:06:50;20.10;21.50
17762;DHT22;9005;48.838;10.112;2023-03-01T15:09:17;19.80;21.80
17762;DHT22;9005;48.838;10.112;2023-03-01T15:11:46;20.00;22.00
17762;DHT22;9005;48.838;10.112;2023-03-01T15:14:26;19.70;21.90
17762;DHT22;9005;48.838;10.112;2023-03-01T15:16:54;19.60;22.00
17762;DHT22;9005;48.838;10.112;2023-03-01T15:19:22;19.70;22.00
17762;DHT22;9005;48.838;10.112;2023-03-01T15:21:50;19.90;22.30
17762;DHT22;9005;48.838;10.112;2023-03-01T15:24:23;19.90;22.00
17762;DHT22;9005;48.838;10.112;2023-03-01T15:26:53;19.60;21.90
17762;DHT22;9005;48.838;10.112;2023-03-01T15:29:24;19.10;22.20
17762;DHT22;9005;48.838;10.112;2023-03-01T15:31:56;19.10;22.80
17762;DHT22;9005;48.838;10.112;2023-03-01T15:34:24;19.00;22.60
17762;DHT22;9005;48.838;10.112;2023-03-01T15:36:53;18.80;22.60
17762;DHT22;9005;48.838;10.112;2023-03-01T15:39:33;18.50;23.10
17762;DHT22;9005;48.838;10.112;2023-03-01T15:42:05;17.80;23.60
17762;DHT22;9005;48.838;10.112;2023-03-01T15:44:34;17.40;24.00
17762;DHT22;9005;48.838;10.112;2023-03-01T15:47:01;17.10;24.60
17762;DHT22;9005;48.838;10.112;2023-03-01T15:49:37;16.90;25.10
17762;DHT22;9005;48.838;10.112;2023-03-01T15:52:08;16.60;25.50
17762;DHT22;9005;48.838;10.112;2023-03-01T15:54:39;16.50;25.80
17762;DHT22;9005;48.838;10.112;2023-03-01T15:57:12;16.30;26.60
17762;DHT22;9005;48.838;10.112;2023-03-01T15:59:39;16.40;26.60
17762;DHT22;9005;48.838;10.112;2023-03-01T16:02:09;16.30;26.80
17762;DHT22;9005;48.838;10.112;2023-03-01T16:04:36;16.10;26.90
17762;DHT22;9005;48.838;10.112;2023-03-01T16:07:03;15.70;27.10
17762;DHT22;9005;48.838;10.112;2023-03-01T16:09:29;15.60;27.60
17762;DHT22;9005;48.838;10.112;2023-03-01T16:11:56;15.30;28.10
17762;DHT22;9005;48.838;10.112;2023-03-01T16:14:24;15.00;28.60
17762;DHT22;9005;48.838;10.112;2023-03-01T16:16:51;14.80;29.10
17762;DHT22;9005;48.838;10.112;2023-03-01T16:19:18;14.60;29.60
17762;DHT22;9005;48.838;10.112;2023-03-01T16:21:45;14.30;30.40
17762;DHT22;9005;48.838;10.112;2023-03-01T16:24:14;14.00;30.90
17762;DHT22;9005;48.838;10.112;2023-03-01T16:26:40;13.80;31.50
17762;DHT22;9005;48.838;10.112;2023-03-01T16:29:08;13.40;32.30
17762;DHT22;9005;48.838;10.112;2023-03-01T16:31:36;13.10;33.60
17762;DHT22;9005;48.838;10.112;2023-03-01T16:34:02;12.80;34.20
17762;DHT22;9005;48.838;10.112;2023-03-01T16:36:29;12.40;35.40
17762;DHT22;9005;48.838;10.112;2023-03-01T16:38:58;11.90;36.50
17762;DHT22;9005;48.838;10.112;2023-03-01T16:41:26;11.50;38.10
17762;DHT22;9005;48.838;10.112;2023-03-01T16:43:53;11.10;39.90
17762;DHT22;9005;48.838;10.112;2023-03-01T16:46:21;10.70;41.60
17762;DHT22;9005;48.838;10.112;2023-03-01T16:48:50;10.40;44.10
17762;DHT22;9005;48.838;10.112;2023-03-01T16:51:17;10.00;46.80
17762;DHT22;9005;48.838;10.112;2023-03-01T16:53:44;9.70;50.20
17762;DHT22;9005;48.838;10.112;2023-03-01T16:56:12;9.40;52.00
17762;DHT22;9005;48.838;10.112;2023-03-01T16:58:39;9.10;54.80
17762;DHT22;9005;48.838;10.112;2023-03-01T17:01:08;8.80;59.10
17762;DHT22;9005;48.838;10.112;2023-03-01T17:03:37;8.50;63.40
17762;DHT22;9005;48.838;10.112;2023-03-01T17:06:07;8.10;67.60
17762;DHT22;9005;48.838;10.112;2023-03-01T17:08:34;7.80;74.30
17762;DHT22;9005;48.838;10.112;2023-03-01T17:11:06;7.50;81.10
17762;DHT22;9005;48.838;10.112;2023-03-01T17:13:33;7.20;87.00
17762;DHT22;9005;48.838;10.112;2023-03-01T17:16:01;7.00;90.80
17762;DHT22;9005;48.838;10.112;2023-03-01T17:18:28;6.80;92.40
17762;DHT22;9005;48.838;10.112;2023-03-01T17:20:55;6.60;93.10
17762;DHT22;9005;48.838;10.112;2023-03-01T17:23:23;6.50;94.30
17762;DHT22;9005;48.838;10.112;2023-03-01T17:25:50;6.20;95.60
17762;DHT22;9005;48.838;10.112;2023-03-01T17:28:20;6.10;99.40
17762;DHT22;9005;48.838;10.112;2023-03-01T17:30:47;5.90;98.00
17762;DHT22;9005;48.838;10.112;2023-03-01T17:33:14;5.80;99.20
17762;DHT22;9005;48.838;10.112;2023-03-01T17:35:41;5.60;99.90
17762;DHT22;9005;48.838;10.112;2023-03-01T17:38:10;5.40;99.90
17762;DHT22;9005;48.838;10.112;2023-03-01T17:40:39;5.30;99.90
17762;DHT22;9005;48.838;10.112;2023-03-01T17:43:06;5.20;99.90
17762;DHT22;9005;48.838;10.112;2023-03-01T17:45:35;5.10;99.90
17762;DHT22;9005;48.838;10.112;2023-03-01T17:48:01;5.00;99.90
17762;DHT22;9005;48.838;10.112;2023-03-01T17:50:28;5.00;99.90
17762;DHT22;9005;48.838;10.112;2023-03-01T17:52:55;4.90;99.90
17762;DHT22;9005;48.838;10.112;2023-03-01T17:55:23;4.80;99.90
17762;DHT22;9005;48.838;10.112;2023-03-01T17:57:51;4.80;99.90
17762;DHT22;9005;48.838;10.112;2023-03-01T18:00:18;4.80;99.90
17762;DHT22;9005;48.838;10.112;2023-03-01T18:02:45;4.70;99.90
17762;DHT22;9005;48.838;10.112;2023-03-01T18:05:12;4.60;99.90
17762;DHT22;9005;48.838;10.112;2023-03-01T18:07:38;4.50;99.90
17762;DHT22;9005;48.838;10.112;2023-03-01T18:10:05;4.40;99.90
17762;DHT22;9005;48.838;10.112;2023-03-01T18:12:32;4.40;99.90
17762;DHT22;9005;48.838;10.112;2023-03-01T18:15:00;4.30;99.90
17762;DHT22;9005;48.838;10.112;2023-03-01T18:17:27;4.30;99.90
17762;DHT22;9005;48.838;10.112;2023-03-01T18:19:54;4.40;99.90
17762;DHT22;9005;48.838;10.112;2023-03-01T18:22:21;4.30;99.90
17762;DHT22;9005;48.838;10.112;2023-03-01T18:24:48;4.30;99.90
17762;DHT22;9005;48.838;10.112;2023-03-01T18:27:15;4.20;99.90
17762;DHT22;9005;48.838;10.112;2023-03-01T18:29:41;4.20;99.90
17762;DHT22;9005;48.838;10.112;2023-03-01T18:32:10;4.10;99.90
17762;DHT22;9005;48.838;10.112;2023-03-01T18:34:36;4.10;99.90
17762;DHT22;9005;48.838;10.112;2023-03-01T18:37:03;4.10;99.90
17762;DHT22;9005;48.838;10.112;2023-03-01T18:39:30;4.00;99.90
17762;DHT22;9005;48.838;10.112;2023-03-01T18:41:57;4.00;99.90
17762;DHT22;9005;48.838;10.112;2023-03-01T18:44:23;4.00;99.90
17762;DHT22;9005;48.838;10.112;2023-03-01T18:46:50;3.90;99.90
17762;DHT22;9005;48.838;10.112;2023-03-01T18:49:18;3.90;99.90
17762;DHT22;9005;48.838;10.112;2023-03-01T18:51:45;3.90;99.90
17762;DHT22;9005;48.838;10.112;2023-03-01T18:54:12;3.80;99.90
17762;DHT22;9005;48.838;10.112;2023-03-01T18:56:39;3.90;99.90
17762;DHT22;9005;48.838;10.112;2023-03-01T18:59:05;3.80;99.90
17762;DHT22;9005;48.838;10.112;2023-03-01T19:01:32;3.80;99.90
17762;DHT22;9005;48.838;10.112;2023-03-01T19:03:59;3.80;99.90
17762;DHT22;9005;48.838;10.112;2023-03-01T19:06:29;3.80;99.90
17762;DHT22;9005;48.838;10.112;2023-03-01T19:08:57;3.70;99.90
17762;DHT22;9005;48.838;10.112;2023-03-01T19:11:24;3.70;99.90
17762;DHT22;9005;48.838;10.112;2023-03-01T19:13:55;3.60;99.90
17762;DHT22;9005;48.838;10.112;2023-03-01T19:16:24;3.50;99.90
17762;DHT22;9005;48.838;10.112;2023-03-01T19:18:55;3.40;99.90
17762;DHT22;9005;48.838;10.112;2023-03-01T19:21:24;3.30;99.90
17762;DHT22;9005;48.838;10.112;2023-03-01T19:23:54;3.30;99.90
17762;DHT22;9005;48.838;10.112;2023-03-01T19:26:22;3.20;99.90
17762;DHT22;9005;48.838;10.112;2023-03-01T19:28:49;3.10;99.90
17762;DHT22;9005;48.838;10.112;2023-03-01T19:31:18;3.10;99.90
17762;DHT22;9005;48.838;10.112;2023-03-01T19:33:45;3.10;99.90
17762;DHT22;9005;48.838;10.112;2023-03-01T19:36:13;3.10;99.90
17762;DHT22;9005;48.838;10.112;2023-03-01T19:38:40;3.00;99.90
17762;DHT22;9005;48.838;10.112;2023-03-01T19:41:11;3.00;99.90
17762;DHT22;9005;48.838;10.112;2023-03-01T19:43:39;3.00;99.90
17762;DHT22;9005;48.838;10.112;2023-03-01T19:46:06;3.00;99.90
17762;DHT22;9005;48.838;10.112;2023-03-01T19:48:33;2.90;99.90
17762;DHT22;9005;48.838;10.112;2023-03-01T19:51:00;2.90;99.90
17762;DHT22;9005;48.838;10.112;2023-03-01T19:53:27;2.90;99.90
17762;DHT22;9005;48.838;10.112;2023-03-01T19:55:56;2.90;99.90
17762;DHT22;9005;48.838;10.112;2023-03-01T19:58:25;2.90;99.90
17762;DHT22;9005;48.838;10.112;2023-03-01T20:00:53;2.90;99.90
17762;DHT22;9005;48.838;10.112;2023-03-01T20:03:23;2.90;99.90
17762;DHT22;9005;48.838;10.112;2023-03-01T20:05:50;2.90;99.90
17762;DHT22;9005;48.838;10.112;2023-03-01T20:08:17;2.80;99.90
17762;DHT22;9005;48.838;10.112;2023-03-01T20:10:44;2.80;99.90
17762;DHT22;9005;48.838;10.112;2023-03-01T20:13:10;2.80;99.90
17762;DHT22;9005;48.838;10.112;2023-03-01T20:15:41;2.80;99.90
17762;DHT22;9005;48.838;10.112;2023-03-01T20:18:08;2.70;99.90
17762;DHT22;9005;48.838;10.112;2023-03-01T20:20:36;2.60;99.90
17762;DHT22;9005;48.838;10.112;2023-03-01T20:23:02;2.60;99.90
17762;DHT22;9005;48.838;10.112;2023-03-01T20:25:29;2.60;99.90
17762;DHT22;9005;48.838;10.112;2023-03-01T20:27:56;2.50;99.90
17762;DHT22;9005;48.838;10.112;2023-03-01T20:30:22;2.60;99.90
17762;DHT22;9005;48.838;10.112;2023-03-01T20:32:51;2.50;99.90
17762;DHT22;9005;48.838;10.112;2023-03-01T20:35:17;2.40;99.90
17762;DHT22;9005;48.838;10.112;2023-03-01T20:37:44;2.40;99.90
17762;DHT22;9005;48.838;10.112;2023-03-01T20:40:11;2.30;99.90
17762;DHT22;9005;48.838;10.112;2023-03-01T20:42:38;2.30;99.90
17762;DHT22;9005;48.838;10.112;2023-03-01T20:45:06;2.30;99.90
17762;DHT22;9005;48.838;10.112;2023-03-01T20:47:32;2.40;99.90
17762;DHT22;9005;48.838;10.112;2023-03-01T20:50:00;2.40;99.90
17762;DHT22;9005;48.838;10.112;2023-03-01T20:52:29;2.30;99.90
17762;DHT22;9005;48.838;10.112;2023-03-01T20:54:56;2.30;99.90
17762;DHT22;9005;48.838;10.112;2023-03-01T20:57:23;2.30;99.90
17762;DHT22;9005;48.838;10.112;2023-03-01T20:59:49;2.20;99.90
17762;DHT22;9005;48.838;10.112;2023-03-01T21:02:16;2.20;99.90
17762;DHT22;9005;48.838;10.112;2023-03-01T21:04:43;2.20;99.90
17762;DHT22;9005;48.838;10.112;2023-03-01T21:07:11;2.20;99.90
17762;DHT22;9005;48.838;10.112;2023-03-01T21:09:38;2.20;99.90
17762;DHT22;9005;48.838;10.112;2023-03-01T21:12:06;2.20;99.90
17762;DHT22;9005;48.838;10.112;2023-03-01T21:14:34;2.20;99.90
17762;DHT22;9005;48.838;10.112;2023-03-01T21:17:06;2.20;99.90
17762;DHT22;9005;48.838;10.112;2023-03-01T21:19:35;2.20;99.90
17762;DHT22;9005;48.838;10.112;2023-03-01T21:22:02;2.10;99.90
17762;DHT22;9005;48.838;10.112;2023-03-01T21:24:30;2.00;99.90
17762;DHT22;9005;48.838;10.112;2023-03-01T21:26:57;2.00;99.90
17762;DHT22;9005;48.838;10.112;2023-03-01T22:03:55;1.60;99.90
17762;DHT22;9005;48.838;10.112;2023-03-01T22:06:24;1.50;99.90
17762;DHT22;9005;48.838;10.112;2023-03-01T22:08:55;1.40;99.90
17762;DHT22;9005;48.838;10.112;2023-03-01T22:11:23;1.30;99.90
17762;DHT22;9005;48.838;10.112;2023-03-01T22:13:51;1.30;99.90
17762;DHT22;9005;48.838;10.112;2023-03-01T22:16:23;1.20;99.90
17762;DHT22;9005;48.838;10.112;2023-03-01T22:18:50;1.10;99.90
17762;DHT22;9005;48.838;10.112;2023-03-01T22:21:17;1.10;99.90
17762;DHT22;9005;48.838;10.112;2023-03-01T22:23:45;1.00;99.90
17762;DHT22;9005;48.838;10.112;2023-03-01T22:26:21;1.00;99.90
17762;DHT22;9005;48.838;10.112;2023-03-01T22:28:48;1.20;99.90
17762;DHT22;9005;48.838;10.112;2023-03-01T22:31:15;1.00;99.90
17762;DHT22;9005;48.838;10.112;2023-03-01T22:33:43;1.00;99.90
17762;DHT22;9005;48.838;10.112;2023-03-01T22:36:10;0.90;99.90
17762;DHT22;9005;48.838;10.112;2023-03-01T22:38:37;0.90;99.90
17762;DHT22;9005;48.838;10.112;2023-03-01T22:41:05;0.90;99.90
17762;DHT22;9005;48.838;10.112;2023-03-01T22:43:32;0.80;99.90
17762;DHT22;9005;48.838;10.112;2023-03-01T22:45:59;0.80;99.90
17762;DHT22;9005;48.838;10.112;2023-03-01T22:48:26;0.90;99.90
17762;DHT22;9005;48.838;10.112;2023-03-01T22:50:54;0.90;99.90